createdAt,value
2018-07-28T00:03:35.063Z,70.40
2018-07-28T00:06:03.572Z,70.20
2018-07-28T00:08:32.031Z,70.40
2018-07-28T00:11:00.560Z,69.80
2018-07-28T00:13:29.015Z,70.50
2018-07-28T00:15:57.444Z,70.80
2018-07-28T00:18:25.911Z,71.00
2018-07-28T00:20:54.415Z,71.40
2018-07-28T00:23:22.883Z,72.00
2018-07-28T00:25:56.627Z,72.20
2018-07-28T00:28:25.075Z,72.20
2018-07-28T00:30:53.513Z,72.90
2018-07-28T00:35:50.103Z,74.50
2018-07-28T00:38:18.560Z,75.30
2018-07-28T00:40:47.027Z,75.90
2018-07-28T00:45:43.578Z,77.10
2018-07-28T00:48:12.038Z,77.50
2018-07-28T00:50:40.532Z,78.50
2018-07-28T00:53:09.420Z,78.20
2018-07-28T00:55:38.124Z,79.30
2018-07-28T01:00:34.739Z,79.40
2018-07-28T01:03:03.187Z,80.00
2018-07-28T01:05:31.619Z,81.30
2018-07-28T01:08:00.212Z,81.50
2018-07-28T01:10:28.683Z,81.60
2018-07-28T01:12:57.208Z,82.30
2018-07-28T01:15:25.663Z,82.20
2018-07-28T01:20:22.327Z,83.20
2018-07-28T01:25:18.900Z,84.60
2018-07-28T01:27:47.323Z,85.10
2018-07-28T01:30:23.207Z,85.70
2018-07-28T01:35:19.816Z,87.10
2018-07-28T01:37:48.255Z,87.20
2018-07-28T01:40:16.711Z,88.40
2018-07-28T01:42:45.141Z,90.00
2018-07-28T01:45:13.605Z,90.10
2018-07-28T01:47:42.060Z,90.80
2018-07-28T01:50:10.840Z,91.40
2018-07-28T01:52:39.759Z,91.60
2018-07-28T01:55:08.191Z,92.00
2018-07-28T01:57:36.667Z,92.40
2018-07-28T02:00:06.504Z,92.70
2018-07-28T02:02:34.974Z,93.10
2018-07-28T02:05:03.473Z,93.60
2018-07-28T02:07:31.967Z,94.00
2018-07-28T02:12:28.535Z,94.90
2018-07-28T02:14:57.063Z,95.40
2018-07-28T02:17:25.539Z,95.60
2018-07-28T02:19:54.039Z,96.10
2018-07-28T02:22:22.503Z,96.50
2018-07-28T02:24:50.971Z,97.10
2018-07-28T02:27:19.406Z,97.20
2018-07-28T02:29:47.921Z,97.70
2018-07-28T02:32:16.429Z,97.90
2018-07-28T02:34:44.918Z,98.60
2018-07-28T02:37:13.433Z,99.10
2018-07-28T02:42:10.099Z,99.70
2018-07-28T02:44:38.609Z,99.90
2018-07-28T02:47:07.152Z,99.90
2018-07-28T02:52:03.852Z,99.90
2018-07-28T02:54:32.357Z,99.90
2018-07-28T02:57:00.845Z,99.90
2018-07-28T02:59:29.345Z,99.90
2018-07-28T03:01:57.825Z,99.90
2018-07-28T03:04:26.345Z,99.90
2018-07-28T03:06:54.879Z,99.90
2018-07-28T03:09:23.394Z,99.90
2018-07-28T03:14:20.036Z,99.90
2018-07-28T03:21:44.852Z,99.90
2018-07-28T03:24:13.364Z,99.90
2018-07-28T03:26:41.885Z,99.90
2018-07-28T03:29:10.357Z,99.90
2018-07-28T03:31:38.861Z,99.90
2018-07-28T03:34:07.493Z,99.90
2018-07-28T03:36:35.980Z,99.90
2018-07-28T03:39:07.445Z,99.90
2018-07-28T03:41:35.956Z,99.90
2018-07-28T03:44:04.492Z,99.90
2018-07-28T03:46:33.028Z,99.90
2018-07-28T03:49:01.530Z,99.90
2018-07-28T03:51:30.097Z,99.90
2018-07-28T03:53:58.584Z,99.90
2018-07-28T03:56:27.179Z,99.90
2018-07-28T03:58:55.676Z,99.90
2018-07-28T04:03:52.355Z,99.90
2018-07-28T04:06:20.876Z,99.90
2018-07-28T04:08:49.353Z,99.90
2018-07-28T04:11:17.868Z,99.90
2018-07-28T04:13:46.360Z,99.90
2018-07-28T04:16:14.865Z,99.90
2018-07-28T04:18:43.375Z,99.90
2018-07-28T04:21:11.856Z,99.90
2018-07-28T04:23:40.352Z,99.90
2018-07-28T04:26:08.836Z,99.90
2018-07-28T04:28:37.399Z,99.90
2018-07-28T04:31:05.877Z,99.90
2018-07-28T04:33:34.405Z,99.90
2018-07-28T04:36:02.930Z,99.90
2018-07-28T04:38:31.410Z,99.90
2018-07-28T04:40:59.917Z,99.90
2018-07-28T04:43:28.445Z,99.90
2018-07-28T04:48:25.101Z,99.90
2018-07-28T04:53:22.048Z,99.90
2018-07-28T04:55:50.557Z,99.90
2018-07-28T04:58:19.054Z,99.90
2018-07-28T05:00:47.538Z,99.90
2018-07-28T05:03:16.041Z,99.90
2018-07-28T05:05:44.529Z,99.90
2018-07-28T05:08:13.041Z,99.90
2018-07-28T05:10:41.521Z,99.90
2018-07-28T05:13:10.027Z,99.90
2018-07-28T05:15:38.508Z,99.90
2018-07-28T05:18:07.033Z,99.90
2018-07-28T05:20:35.541Z,99.90
2018-07-28T05:23:04.017Z,99.90
2018-07-28T05:25:32.529Z,99.90
2018-07-28T05:32:57.388Z,99.90
2018-07-28T05:35:25.899Z,99.90
2018-07-28T05:37:54.376Z,99.90
2018-07-28T05:40:22.912Z,99.90
2018-07-28T05:45:19.530Z,99.90
2018-07-28T05:47:48.032Z,99.90
2018-07-28T05:50:16.530Z,99.90
2018-07-28T05:52:45.037Z,99.90
2018-07-28T05:55:13.540Z,99.90
2018-07-28T05:57:42.045Z,99.90
2018-07-28T06:00:10.549Z,99.90
2018-07-28T06:05:07.292Z,99.90
2018-07-28T06:07:35.897Z,99.90
2018-07-28T06:12:32.753Z,99.90
2018-07-28T06:15:01.321Z,99.90
2018-07-28T06:17:29.800Z,99.90
2018-07-28T06:19:58.306Z,99.90
2018-07-28T06:22:26.820Z,99.90
2018-07-28T06:24:55.341Z,99.90
2018-07-28T06:27:23.837Z,99.90
2018-07-28T06:29:52.321Z,99.90
2018-07-28T06:32:20.857Z,99.90
2018-07-28T06:34:49.357Z,99.90
2018-07-28T06:37:17.864Z,99.90
2018-07-28T06:39:46.348Z,99.90
2018-07-28T06:44:43.024Z,99.90
2018-07-28T06:47:11.566Z,99.90
2018-07-28T06:49:40.060Z,99.90
2018-07-28T06:52:08.629Z,99.90
2018-07-28T06:54:37.136Z,99.90
2018-07-28T06:57:05.636Z,99.90
2018-07-28T06:59:34.156Z,99.90
2018-07-28T07:02:02.689Z,99.90
2018-07-28T07:04:31.213Z,99.90
2018-07-28T07:06:59.729Z,99.90
2018-07-28T07:09:28.237Z,99.90
2018-07-28T07:14:24.872Z,99.90
2018-07-28T07:16:53.356Z,99.90
2018-07-28T07:19:21.864Z,99.90
2018-07-28T07:21:50.398Z,99.90
2018-07-28T07:24:18.902Z,99.90
2018-07-28T07:26:47.398Z,99.90
2018-07-28T07:29:15.877Z,99.90
2018-07-28T07:34:12.848Z,99.90
2018-07-28T07:36:41.670Z,99.90
2018-07-28T07:39:10.426Z,99.90
2018-07-28T07:41:38.966Z,99.90
2018-07-28T07:44:07.466Z,99.90
2018-07-28T07:46:35.977Z,99.40
2018-07-28T07:49:04.473Z,98.30
2018-07-28T07:51:33.016Z,97.50
2018-07-28T07:54:01.664Z,96.90
2018-07-28T07:56:30.052Z,97.20
2018-07-28T07:58:58.569Z,97.30
2018-07-28T08:01:27.044Z,98.00
2018-07-28T08:03:55.544Z,97.20
2018-07-28T08:06:24.071Z,96.90
2018-07-28T08:08:52.945Z,97.30
2018-07-28T08:11:22.757Z,97.20
2018-07-28T08:13:51.233Z,96.20
2018-07-28T08:16:19.729Z,96.50
2018-07-28T08:18:48.210Z,96.60
2018-07-28T08:21:16.705Z,96.70
2018-07-28T08:23:45.177Z,96.80
2018-07-28T08:26:13.677Z,97.10
2018-07-28T08:28:42.149Z,97.30
2018-07-28T08:31:10.649Z,97.40
2018-07-28T08:33:39.124Z,98.00
2018-07-28T08:36:07.645Z,97.50
2018-07-28T08:38:36.148Z,97.40
2018-07-28T08:41:04.729Z,96.00
2018-07-28T08:43:33.238Z,96.60
2018-07-28T08:46:01.734Z,95.60
2018-07-28T08:48:30.228Z,95.40
2018-07-28T08:50:58.704Z,95.20
2018-07-28T08:53:27.205Z,95.40
2018-07-28T08:55:55.717Z,94.60
2018-07-28T08:58:24.228Z,94.20
2018-07-28T09:00:52.703Z,93.60
2018-07-28T09:03:21.377Z,93.50
2018-07-28T09:05:49.900Z,93.00
2018-07-28T09:08:18.384Z,92.70
2018-07-28T09:10:46.896Z,93.10
2018-07-28T09:15:43.555Z,90.10
2018-07-28T09:20:40.222Z,88.60
2018-07-28T09:23:08.757Z,84.60
2018-07-28T09:25:37.276Z,82.50
2018-07-28T09:33:02.160Z,80.50
2018-07-28T09:35:30.653Z,78.10
2018-07-28T09:37:59.165Z,76.30
2018-07-28T09:42:55.792Z,75.00
2018-07-28T09:45:24.286Z,72.10
2018-07-28T09:47:52.800Z,70.60
2018-07-28T09:50:21.317Z,70.10
2018-07-28T09:52:50.061Z,67.80
2018-07-28T10:00:19.114Z,66.80
2018-07-28T10:02:47.628Z,66.60
2018-07-28T10:05:16.132Z,64.60
2018-07-28T10:07:44.625Z,65.20
2018-07-28T10:12:41.277Z,64.20
2018-07-28T10:15:09.799Z,65.50
2018-07-28T10:17:38.300Z,61.30
2018-07-28T10:20:06.832Z,59.90
2018-07-28T10:27:31.648Z,57.60
2018-07-28T10:30:00.182Z,58.30
2018-07-28T10:34:56.844Z,54.40
2018-07-28T10:37:25.348Z,54.20
2018-07-28T10:39:53.908Z,53.10
2018-07-28T10:42:22.393Z,53.30
2018-07-28T10:44:51.157Z,51.70
2018-07-28T10:47:21.977Z,51.40
2018-07-28T10:49:50.552Z,51.30
2018-07-28T10:54:50.334Z,51.30
2018-07-28T10:57:21.121Z,51.40
2018-07-28T11:07:14.190Z,52.50
2018-07-28T11:09:42.669Z,52.70
2018-07-28T11:12:11.219Z,53.40
2018-07-28T11:14:39.692Z,52.60
2018-07-28T11:17:08.232Z,52.70
2018-07-28T11:19:37.197Z,52.60
2018-07-28T11:22:05.762Z,51.80
2018-07-28T11:24:34.248Z,50.10
2018-07-28T11:27:02.891Z,49.80
2018-07-28T11:29:31.393Z,50.30
2018-07-28T11:32:11.124Z,50.10
2018-07-28T11:37:23.884Z,50.10
2018-07-28T11:40:03.529Z,48.90
2018-07-28T11:42:43.169Z,47.50
2018-07-28T11:45:18.125Z,48.40
2018-07-28T11:47:46.636Z,46.70
2018-07-28T11:50:15.236Z,44.70
2018-07-28T11:55:12.133Z,43.30
2018-07-28T11:57:40.633Z,42.90
2018-07-28T12:00:10.088Z,42.50
2018-07-28T12:02:38.685Z,43.10
2018-07-28T12:05:07.768Z,42.70
2018-07-28T12:10:06.570Z,42.40
2018-07-28T12:12:35.119Z,43.40
2018-07-28T12:15:03.625Z,43.30
2018-07-28T12:17:32.129Z,46.10
2018-07-28T12:20:00.617Z,46.10
2018-07-28T12:22:29.089Z,43.70
2018-07-28T12:29:53.912Z,36.90
2018-07-28T12:34:50.725Z,32.90
2018-07-28T12:37:19.187Z,34.00
2018-07-28T12:39:47.693Z,32.70
2018-07-28T12:42:16.164Z,34.10
2018-07-28T12:44:44.636Z,35.80
2018-07-28T12:47:13.136Z,34.60
2018-07-28T12:49:41.644Z,34.30
2018-07-28T12:52:10.152Z,34.00
2018-07-28T12:54:38.641Z,33.60
2018-07-28T12:57:07.139Z,33.40
2018-07-28T12:59:35.632Z,33.70
2018-07-28T13:02:04.185Z,33.90
2018-07-28T13:04:32.663Z,33.70
2018-07-28T13:07:01.170Z,35.50
2018-07-28T13:09:29.668Z,36.40
2018-07-28T13:11:58.165Z,36.00
2018-07-28T13:14:26.663Z,36.20
2018-07-28T13:16:55.152Z,36.60
2018-07-28T13:19:23.677Z,37.40
2018-07-28T13:21:52.172Z,36.70
2018-07-28T13:24:20.665Z,34.60
2018-07-28T13:26:49.148Z,33.90
2018-07-28T13:29:17.616Z,34.10
2018-07-28T13:31:46.121Z,34.00
2018-07-28T13:34:14.592Z,31.90
2018-07-28T13:36:43.117Z,30.60
2018-07-28T13:39:11.585Z,29.80
2018-07-28T13:41:40.113Z,28.50
2018-07-28T13:44:08.596Z,27.60
2018-07-28T13:46:37.112Z,27.80
2018-07-28T13:49:05.652Z,26.90
2018-07-28T13:51:34.161Z,26.50
2018-07-28T13:54:02.656Z,26.50
2018-07-28T13:56:31.132Z,27.20
2018-07-28T13:58:59.704Z,27.90
2018-07-28T14:01:28.164Z,29.00
2018-07-28T14:03:56.673Z,29.10
2018-07-28T14:06:25.192Z,29.40
2018-07-28T14:08:53.702Z,29.90
2018-07-28T14:11:22.185Z,30.30
2018-07-28T14:13:50.677Z,31.10
2018-07-28T14:16:19.149Z,32.40
2018-07-28T14:18:47.763Z,33.10
2018-07-28T14:21:16.190Z,34.00
2018-07-28T14:23:44.772Z,34.60
2018-07-28T14:26:13.365Z,35.00
2018-07-28T14:28:42.013Z,35.40
2018-07-28T14:31:10.521Z,34.50
2018-07-28T14:36:07.213Z,35.70
2018-07-28T14:38:35.690Z,36.20
2018-07-28T14:41:04.252Z,36.70
2018-07-28T14:46:00.907Z,37.00
2018-07-28T14:50:57.646Z,36.90
2018-07-28T14:53:26.163Z,37.40
2018-07-28T14:55:54.700Z,37.10
2018-07-28T14:58:23.252Z,38.10
2018-07-28T15:00:51.820Z,37.70
2018-07-28T15:03:20.325Z,37.50
2018-07-28T15:05:48.817Z,37.80
2018-07-28T15:08:17.313Z,38.00
2018-07-28T15:10:45.825Z,38.40
2018-07-28T15:13:14.318Z,38.70
2018-07-28T15:15:42.864Z,39.20
2018-07-28T15:18:11.352Z,39.50
2018-07-28T15:20:39.843Z,40.00
2018-07-28T15:23:08.370Z,41.10
2018-07-28T15:25:36.884Z,41.80
2018-07-28T15:28:05.425Z,42.90
2018-07-28T15:30:33.949Z,44.70
2018-07-28T15:33:02.461Z,45.40
2018-07-28T15:37:59.106Z,48.80
2018-07-28T15:40:27.577Z,50.00
2018-07-28T15:42:56.101Z,49.60
2018-07-28T15:45:24.572Z,50.20
2018-07-28T15:47:53.157Z,50.20
2018-07-28T15:50:21.624Z,50.20
2018-07-28T15:55:18.593Z,50.30
2018-07-28T15:57:47.080Z,49.60
2018-07-28T16:00:18.480Z,50.20
2018-07-28T16:02:47.804Z,50.20
2018-07-28T16:05:16.820Z,50.70
2018-07-28T16:07:45.353Z,51.60
2018-07-28T16:10:13.913Z,51.50
2018-07-28T16:12:42.385Z,51.40
2018-07-28T16:15:11.157Z,51.60
2018-07-28T16:17:39.632Z,51.70
2018-07-28T16:22:36.336Z,52.70
2018-07-28T16:25:05.149Z,53.00
2018-07-28T16:27:33.674Z,53.30
2018-07-28T16:30:02.147Z,53.60
2018-07-28T16:32:30.660Z,53.90
2018-07-28T16:34:59.128Z,54.30
2018-07-28T16:37:27.653Z,54.70
2018-07-28T16:39:56.144Z,55.00
2018-07-28T16:42:24.650Z,55.10
2018-07-28T16:47:21.381Z,56.80
2018-07-28T16:49:49.884Z,58.80
2018-07-28T16:54:46.590Z,59.90
2018-07-28T16:57:15.081Z,60.40
2018-07-28T16:59:43.572Z,60.20
2018-07-28T17:02:12.069Z,60.90
2018-07-28T17:04:40.650Z,61.00
2018-07-28T17:07:10.050Z,61.10
2018-07-28T17:09:38.513Z,61.60
2018-07-28T17:12:07.093Z,62.10
2018-07-28T17:14:35.573Z,62.70
2018-07-28T17:17:04.093Z,62.60
2018-07-28T17:19:32.630Z,62.70
2018-07-28T17:22:01.153Z,63.10
2018-07-28T17:24:29.632Z,63.90
2018-07-28T17:26:58.137Z,64.20
2018-07-28T17:29:26.604Z,65.00
2018-07-28T17:31:55.087Z,65.90
2018-07-28T17:39:19.909Z,68.10
2018-07-28T17:41:48.436Z,68.50
2018-07-28T17:44:16.989Z,70.50
2018-07-28T17:49:13.656Z,70.10
2018-07-28T17:51:42.188Z,70.60
2018-07-28T17:54:10.665Z,71.00
2018-07-28T17:56:39.160Z,71.20
2018-07-28T17:59:07.702Z,71.10
2018-07-28T18:01:36.225Z,71.40
2018-07-28T18:04:04.738Z,71.70
2018-07-28T18:06:33.264Z,72.00
2018-07-28T18:09:01.798Z,72.40
2018-07-28T18:16:26.596Z,73.20
2018-07-28T18:18:55.369Z,73.40
2018-07-28T18:21:23.845Z,75.90
2018-07-28T18:23:52.397Z,76.80
2018-07-28T18:26:20.865Z,77.80
2018-07-28T18:28:49.396Z,78.00
2018-07-28T18:31:17.876Z,77.70
2018-07-28T18:33:46.425Z,78.80
2018-07-28T18:36:14.925Z,79.20
2018-07-28T18:38:43.414Z,79.90
2018-07-28T18:41:11.905Z,79.00
2018-07-28T18:43:40.372Z,79.20
2018-07-28T18:46:08.868Z,80.10
2018-07-28T18:48:37.345Z,80.70
2018-07-28T18:51:05.849Z,81.70
2018-07-28T18:53:34.336Z,82.00
2018-07-28T18:56:02.812Z,82.60
2018-07-28T18:58:31.313Z,83.10
2018-07-28T19:00:59.820Z,83.40
2018-07-28T19:03:28.368Z,83.80
2018-07-28T19:05:56.814Z,83.50
2018-07-28T19:08:25.320Z,83.90
2018-07-28T19:10:54.341Z,84.20
2018-07-28T19:13:28.164Z,85.20
2018-07-28T19:15:57.048Z,85.40
2018-07-28T19:18:30.994Z,87.60
2018-07-28T19:20:59.477Z,90.80
2018-07-28T19:23:33.436Z,92.30
2018-07-28T19:28:35.435Z,93.50
2018-07-28T19:31:03.989Z,93.30
2018-07-28T19:33:32.414Z,92.40
2018-07-28T19:36:06.157Z,92.30
2018-07-28T19:38:34.713Z,92.10
2018-07-28T19:41:03.201Z,92.40
2018-07-28T19:43:31.685Z,92.20
2018-07-28T19:46:00.180Z,92.70
2018-07-28T19:48:28.660Z,92.80
2018-07-28T19:50:57.169Z,92.90
2018-07-28T19:53:25.640Z,92.80
2018-07-28T19:55:54.128Z,93.20
2018-07-28T19:58:22.601Z,93.50
2018-07-28T20:00:51.141Z,93.60
2018-07-28T20:03:19.660Z,94.00
2018-07-28T20:05:48.132Z,94.20
2018-07-28T20:08:16.596Z,94.40
2018-07-28T20:10:45.097Z,94.80
2018-07-28T20:13:13.592Z,95.20
2018-07-28T20:15:42.077Z,95.30
2018-07-28T20:18:10.581Z,95.50
2018-07-28T20:23:07.225Z,95.90
2018-07-28T20:25:35.701Z,95.70
2018-07-28T20:28:04.209Z,96.20
2018-07-28T20:30:32.668Z,95.90
2018-07-28T20:33:01.173Z,95.80
2018-07-28T20:35:29.696Z,95.90
2018-07-28T20:37:58.193Z,95.90
2018-07-28T20:40:26.742Z,95.90
2018-07-28T20:42:55.244Z,95.90
2018-07-28T20:45:23.752Z,96.00
2018-07-28T20:47:52.237Z,96.00
2018-07-28T20:50:20.768Z,96.30
2018-07-28T20:52:49.237Z,96.60
2018-07-28T20:55:17.721Z,96.90
2018-07-28T20:57:46.186Z,97.50
2018-07-28T21:05:11.001Z,98.60
2018-07-28T21:07:39.540Z,99.10
2018-07-28T21:10:08.259Z,99.50
2018-07-28T21:12:36.732Z,99.70
2018-07-28T21:15:06.141Z,99.90
2018-07-28T21:17:34.876Z,99.90
2018-07-28T21:20:03.420Z,99.90
2018-07-28T21:22:31.925Z,99.90
2018-07-28T21:25:00.457Z,99.90
2018-07-28T21:27:28.924Z,99.90
2018-07-28T21:29:57.489Z,99.90
2018-07-28T21:32:25.969Z,99.90
2018-07-28T21:34:54.469Z,99.90
2018-07-28T21:37:22.948Z,99.90
2018-07-28T21:39:51.522Z,99.90
2018-07-28T21:42:20.022Z,99.90
2018-07-28T21:44:48.509Z,99.90
2018-07-28T21:47:17.029Z,99.90
2018-07-28T21:49:45.509Z,99.90
2018-07-28T21:52:14.029Z,99.90
2018-07-28T21:54:42.562Z,99.90
2018-07-28T21:57:11.040Z,99.90
2018-07-28T21:59:39.524Z,99.90
2018-07-28T22:02:08.189Z,99.90
2018-07-28T22:04:38.568Z,99.90
2018-07-28T22:07:07.117Z,99.90
2018-07-28T22:09:35.601Z,99.90
2018-07-28T22:12:04.101Z,99.90
2018-07-28T22:17:00.821Z,99.90
2018-07-28T22:19:29.329Z,99.90
2018-07-28T22:21:57.861Z,99.90
2018-07-28T22:24:26.361Z,99.90
2018-07-28T22:26:54.904Z,99.90
2018-07-28T22:29:23.429Z,99.90
2018-07-28T22:31:51.913Z,99.90
2018-07-28T22:34:20.417Z,99.90
2018-07-28T22:36:48.945Z,99.90
2018-07-28T22:39:17.500Z,99.90
2018-07-28T22:46:42.317Z,99.90
2018-07-28T22:49:10.796Z,99.90
2018-07-28T22:51:39.352Z,99.90
2018-07-28T22:54:07.824Z,99.90
2018-07-28T22:56:36.297Z,99.90
2018-07-28T22:59:04.800Z,99.90
2018-07-28T23:01:33.284Z,99.90
2018-07-28T23:04:01.801Z,99.90
2018-07-28T23:08:58.446Z,99.90
2018-07-28T23:11:26.945Z,99.90
2018-07-28T23:18:51.749Z,99.90
2018-07-28T23:21:20.248Z,99.90
2018-07-28T23:26:16.892Z,99.90
2018-07-28T23:28:45.369Z,99.90
2018-07-28T23:31:13.857Z,99.90
2018-07-28T23:36:10.529Z,99.90
2018-07-28T23:41:07.193Z,99.90
2018-07-28T23:43:35.712Z,99.90
2018-07-28T23:46:04.301Z,99.90
2018-07-28T23:48:32.836Z,99.90
2018-07-28T23:51:01.334Z,99.90
2018-07-28T23:53:29.872Z,99.90
2018-07-28T23:55:58.421Z,99.90
2018-07-28T23:58:26.916Z,99.90
